sensor_id;sensor_type;location;lat;lon;timestamp;pressure;altitude;pressure_sealevel;temperature;humidity
8894;BME280;4483;48.622;9.230;2023-02-28T00:00:36;98538.34;;;-0.62;63.35
8894;BME280;4483;48.622;9.230;2023-02-28T00:03:03;98532.38;;;-0.66;63.63
8894;BME280;4483;48.622;9.230;2023-02-28T00:05:30;98534.09;;;-0.65;63.76
8894;BME280;4483;48.622;9.230;2023-02-28T00:07:57;98539.13;;;-0.66;63.38
8894;BME280;4483;48.622;9.230;2023-02-28T00:10:25;98529.81;;;-0.67;63.72
8894;BME280;4483;48.622;9.230;2023-02-28T00:12:54;98543.31;;;-0.68;63.70
8894;BME280;4483;48.622;9.230;2023-02-28T00:15:24;98541.59;;;-0.69;63.97
8894;BME280;4483;48.622;9.230;2023-02-28T00:17:51;98538.19;;;-0.71;63.94
8894;BME280;4483;48.622;9.230;2023-02-28T00:20:18;98550.81;;;-0.73;63.80
8894;BME280;4483;48.622;9.230;2023-02-28T00:22:47;98540.69;;;-0.74;64.03
8894;BME280;4483;48.622;9.230;2023-02-28T00:25:16;98531.41;;;-0.75;64.16
8894;BME280;4483;48.622;9.230;2023-02-28T00:27:43;98534.75;;;-0.76;64.24
8894;BME280;4483;48.622;9.230;2023-02-28T00:30:15;98534.75;;;-0.76;64.23
8894;BME280;4483;48.622;9.230;2023-02-28T00:32:45;98528.00;;;-0.77;64.50
8894;BME280;4483;48.622;9.230;2023-02-28T00:35:12;98531.31;;;-0.81;65.13
8894;BME280;4483;48.622;9.230;2023-02-28T00:37:38;98533.00;;;-0.80;64.70
8894;BME280;4483;48.622;9.230;2023-02-28T00:40:07;98538.06;;;-0.80;64.76
8894;BME280;4483;48.622;9.230;2023-02-28T00:42:35;98534.69;;;-0.82;65.07
8894;BME280;4483;48.622;9.230;2023-02-28T00:45:02;98539.75;;;-0.82;65.30
8894;BME280;4483;48.622;9.230;2023-02-28T00:47:30;98537.16;;;-0.84;65.35
8894;BME280;4483;48.622;9.230;2023-02-28T00:49:58;98541.31;;;-0.87;65.41
8894;BME280;4483;48.622;9.230;2023-02-28T00:52:25;98539.63;;;-0.88;65.51
8894;BME280;4483;48.622;9.230;2023-02-28T00:54:52;98541.28;;;-0.90;65.61
8894;BME280;4483;48.622;9.230;2023-02-28T00:57:18;98532.06;;;-0.87;65.62
8894;BME280;4483;48.622;9.230;2023-02-28T00:59:45;98532.06;;;-0.87;65.82
8894;BME280;4483;48.622;9.230;2023-02-28T01:02:12;98526.97;;;-0.90;66.25
8894;BME280;4483;48.622;9.230;2023-02-28T01:04:38;98531.16;;;-0.90;66.32
8894;BME280;4483;48.622;9.230;2023-02-28T01:07:06;98532.84;;;-0.89;65.87
8894;BME280;4483;48.622;9.230;2023-02-28T01:09:34;98533.69;;;-0.90;66.09
8894;BME280;4483;48.622;9.230;2023-02-28T01:12:01;98527.00;;;-0.88;65.52
8894;BME280;4483;48.622;9.230;2023-02-28T01:14:27;98526.97;;;-0.90;65.69
8894;BME280;4483;48.622;9.230;2023-02-28T01:16:54;98529.50;;;-0.90;65.98
8894;BME280;4483;48.622;9.230;2023-02-28T01:19:21;98528.63;;;-0.92;65.83
8894;BME280;4483;48.622;9.230;2023-02-28T01:21:47;98527.75;;;-0.92;66.00
8894;BME280;4483;48.622;9.230;2023-02-28T01:24:15;98530.28;;;-0.94;66.43
8894;BME280;4483;48.622;9.230;2023-02-28T01:26:42;98532.78;;;-0.95;66.56
8894;BME280;4483;48.622;9.230;2023-02-28T01:29:09;98537.84;;;-0.95;66.36
8894;BME280;4483;48.622;9.230;2023-02-28T01:31:35;98529.38;;;-0.97;66.61
8894;BME280;4483;48.622;9.230;2023-02-28T01:34:03;98524.25;;;-1.01;66.44
8894;BME280;4483;48.622;9.230;2023-02-28T01:36:29;98527.66;;;-1.00;66.42
8894;BME280;4483;48.622;9.230;2023-02-28T01:38:56;98522.56;;;-1.02;66.86
8894;BME280;4483;48.622;9.230;2023-02-28T01:41:26;98521.69;;;-1.04;66.74
8894;BME280;4483;48.622;9.230;2023-02-28T01:43:57;98512.41;;;-1.05;67.03
8894;BME280;4483;48.622;9.230;2023-02-28T01:46:25;98517.47;;;-1.05;67.52
8894;BME280;4483;48.622;9.230;2023-02-28T01:48:54;98516.63;;;-1.05;67.33
8894;BME280;4483;48.622;9.230;2023-02-28T01:51:27;98508.13;;;-1.09;67.21
8894;BME280;4483;48.622;9.230;2023-02-28T01:53:59;98514.06;;;-1.07;67.23
8894;BME280;4483;48.622;9.230;2023-02-28T01:56:29;98511.56;;;-1.04;67.28
8894;BME280;4483;48.622;9.230;2023-02-28T01:58:56;98510.72;;;-1.03;67.70
8894;BME280;4483;48.622;9.230;2023-02-28T02:01:25;98505.66;;;-1.04;67.71
8894;BME280;4483;48.622;9.230;2023-02-28T02:03:55;98506.50;;;-1.05;67.60
8894;BME280;4483;48.622;9.230;2023-02-28T02:06:25;98506.50;;;-1.05;67.60
8894;BME280;4483;48.622;9.230;2023-02-28T02:08:52;98504.84;;;-1.05;67.83
8894;BME280;4483;48.622;9.230;2023-02-28T02:11:20;98507.34;;;-1.05;67.92
8894;BME280;4483;48.622;9.230;2023-02-28T02:14:17;98499.78;;;-1.05;67.97
8894;BME280;4483;48.622;9.230;2023-02-28T02:17:08;98497.25;;;-1.03;67.96
8894;BME280;4483;48.622;9.230;2023-02-28T02:20:04;98488.81;;;-1.04;68.60
8894;BME280;4483;48.622;9.230;2023-02-28T02:23:11;98484.63;;;-1.03;68.63
8894;BME280;4483;48.622;9.230;2023-02-28T02:25:45;98481.25;;;-1.02;68.85
8894;BME280;4483;48.622;9.230;2023-02-28T02:31:56;98474.47;;;-1.05;69.75
8894;BME280;4483;48.622;9.230;2023-02-28T02:34:54;98477.81;;;-1.06;69.18
8894;BME280;4483;48.622;9.230;2023-02-28T02:37:30;98471.88;;;-1.08;69.42
8894;BME280;4483;48.622;9.230;2023-02-28T02:40:10;98470.22;;;-1.07;69.57
8894;BME280;4483;48.622;9.230;2023-02-28T02:42:42;98470.22;;;-1.06;70.14
8894;BME280;4483;48.622;9.230;2023-02-28T02:45:14;98471.09;;;-1.05;70.48
8894;BME280;4483;48.622;9.230;2023-02-28T02:47:43;98477.91;;;-1.01;69.74
8894;BME280;4483;48.622;9.230;2023-02-28T02:50:17;98482.13;;;-1.00;69.88
8894;BME280;4483;48.622;9.230;2023-02-28T02:52:49;98479.59;;;-1.00;70.21
8894;BME280;4483;48.622;9.230;2023-02-28T02:55:18;98470.34;;;-0.99;69.93
8894;BME280;4483;48.622;9.230;2023-02-28T02:57:48;98478.72;;;-1.02;70.20
8894;BME280;4483;48.622;9.230;2023-02-28T03:00:18;98486.31;;;-1.01;70.59
8894;BME280;4483;48.622;9.230;2023-02-28T03:02:47;98486.31;;;-1.02;70.49
8894;BME280;4483;48.622;9.230;2023-02-28T03:05:19;98482.00;;;-1.08;70.65
8894;BME280;4483;48.622;9.230;2023-02-28T03:07:46;98484.53;;;-1.08;70.62
8894;BME280;4483;48.622;9.230;2023-02-28T03:10:34;98488.78;;;-1.07;71.31
8894;BME280;4483;48.622;9.230;2023-02-28T03:13:24;98489.66;;;-1.05;71.36
8894;BME280;4483;48.622;9.230;2023-02-28T03:16:10;98483.75;;;-1.04;71.15
8894;BME280;4483;48.622;9.230;2023-02-28T03:18:47;98492.19;;;-1.03;71.13
8894;BME280;4483;48.622;9.230;2023-02-28T03:21:26;98496.38;;;-1.05;72.01
8894;BME280;4483;48.622;9.230;2023-02-28T03:24:03;98484.63;;;-1.02;71.89
8894;BME280;4483;48.622;9.230;2023-02-28T03:26:33;98485.50;;;-1.01;71.45
8894;BME280;4483;48.622;9.230;2023-02-28T03:29:03;98482.13;;;-1.00;71.75
8894;BME280;4483;48.622;9.230;2023-02-28T03:31:35;98482.09;;;-1.02;72.43
8894;BME280;4483;48.622;9.230;2023-02-28T03:34:07;98482.91;;;-1.04;72.46
8894;BME280;4483;48.622;9.230;2023-02-28T03:36:38;98484.63;;;-1.02;72.87
8894;BME280;4483;48.622;9.230;2023-02-28T03:39:13;98485.50;;;-0.99;72.36
8894;BME280;4483;48.622;9.230;2023-02-28T03:41:43;98484.63;;;-1.03;73.55
8894;BME280;4483;48.622;9.230;2023-02-28T03:44:15;98478.72;;;-1.01;73.20
8894;BME280;4483;48.622;9.230;2023-02-28T03:46:47;98477.00;;;-1.05;73.87
8894;BME280;4483;48.622;9.230;2023-02-28T03:49:17;98479.56;;;-1.02;73.04
8894;BME280;4483;48.622;9.230;2023-02-28T03:51:47;98477.91;;;-1.01;73.05
8894;BME280;4483;48.622;9.230;2023-02-28T03:54:17;98481.31;;;-0.97;73.30
8894;BME280;4483;48.622;9.230;2023-02-28T03:56:48;98473.78;;;-0.94;73.69
8894;BME280;4483;48.622;9.230;2023-02-28T03:59:24;98492.34;;;-0.94;73.31
8894;BME280;4483;48.622;9.230;2023-02-28T04:01:53;98494.81;;;-0.97;74.13
8894;BME280;4483;48.622;9.230;2023-02-28T04:04:20;98487.19;;;-0.98;74.36
8894;BME280;4483;48.622;9.230;2023-02-28T04:06:51;98484.63;;;-1.03;74.52
8894;BME280;4483;48.622;9.230;2023-02-28T04:09:18;98484.66;;;-1.00;74.39
8894;BME280;4483;48.622;9.230;2023-02-28T04:11:45;98487.19;;;-0.98;74.25
8894;BME280;4483;48.622;9.230;2023-02-28T04:14:16;98476.28;;;-0.96;74.45
8894;BME280;4483;48.622;9.230;2023-02-28T04:16:43;98477.16;;;-0.95;75.20
8894;BME280;4483;48.622;9.230;2023-02-28T04:19:11;98491.44;;;-0.97;75.09
8894;BME280;4483;48.622;9.230;2023-02-28T04:21:39;98482.22;;;-0.95;74.87
8894;BME280;4483;48.622;9.230;2023-02-28T04:24:09;98477.97;;;-0.95;75.06
8894;BME280;4483;48.622;9.230;2023-02-28T04:26:41;98484.75;;;-0.94;74.84
8894;BME280;4483;48.622;9.230;2023-02-28T04:29:09;98489.03;;;-0.88;74.28
8894;BME280;4483;48.622;9.230;2023-02-28T04:31:36;98483.16;;;-0.87;74.61
8894;BME280;4483;48.622;9.230;2023-02-28T04:34:02;98482.31;;;-0.88;74.56
8894;BME280;4483;48.622;9.230;2023-02-28T04:36:29;98479.81;;;-0.86;75.21
8894;BME280;4483;48.622;9.230;2023-02-28T04:38:56;98467.94;;;-0.90;75.18
8894;BME280;4483;48.622;9.230;2023-02-28T04:41:24;98478.09;;;-0.86;75.04
8894;BME280;4483;48.622;9.230;2023-02-28T04:43:51;98472.19;;;-0.88;75.47
8894;BME280;4483;48.622;9.230;2023-02-28T04:46:18;98473.88;;;-0.88;75.23
8894;BME280;4483;48.622;9.230;2023-02-28T04:48:45;98479.03;;;-0.82;75.17
8894;BME280;4483;48.622;9.230;2023-02-28T04:51:13;98484.91;;;-0.83;75.96
8894;BME280;4483;48.622;9.230;2023-02-28T04:53:41;98483.22;;;-0.84;75.55
8894;BME280;4483;48.622;9.230;2023-02-28T04:56:10;98477.28;;;-0.86;75.94
8894;BME280;4483;48.622;9.230;2023-02-28T04:58:39;98489.09;;;-0.84;75.64
8894;BME280;4483;48.622;9.230;2023-02-28T05:01:13;98484.09;;;-0.82;75.58
8894;BME280;4483;48.622;9.230;2023-02-28T05:03:42;98484.13;;;-0.79;75.59
8894;BME280;4483;48.622;9.230;2023-02-28T05:06:10;98477.34;;;-0.80;75.98
8894;BME280;4483;48.622;9.230;2023-02-28T05:08:37;98481.50;;;-0.85;77.04
8894;BME280;4483;48.622;9.230;2023-02-28T05:11:06;98478.97;;;-0.85;76.43
8894;BME280;4483;48.622;9.230;2023-02-28T05:13:34;98477.31;;;-0.83;76.80
8894;BME280;4483;48.622;9.230;2023-02-28T05:16:02;98479.84;;;-0.82;76.81
8894;BME280;4483;48.622;9.230;2023-02-28T05:18:29;98484.91;;;-0.82;76.83
8894;BME280;4483;48.622;9.230;2023-02-28T05:20:55;98485.81;;;-0.78;77.01
8894;BME280;4483;48.622;9.230;2023-02-28T05:23:22;98497.63;;;-0.77;76.58
8894;BME280;4483;48.622;9.230;2023-02-28T05:25:49;98495.16;;;-0.74;76.60
8894;BME280;4483;48.622;9.230;2023-02-28T05:28:17;98492.59;;;-0.76;76.40
8894;BME280;4483;48.622;9.230;2023-02-28T05:30:44;98490.97;;;-0.72;76.21
8894;BME280;4483;48.622;9.230;2023-02-28T05:33:12;98496.81;;;-0.76;76.88
8894;BME280;4483;48.622;9.230;2023-02-28T05:35:40;98497.69;;;-0.74;76.81
8894;BME280;4483;48.622;9.230;2023-02-28T05:38:07;98498.53;;;-0.74;76.57
8894;BME280;4483;48.622;9.230;2023-02-28T05:40:33;98496.00;;;-0.75;76.82
8894;BME280;4483;48.622;9.230;2023-02-28T05:43:01;98499.38;;;-0.73;77.06
8894;BME280;4483;48.622;9.230;2023-02-28T05:45:27;98502.75;;;-0.73;77.02
8894;BME280;4483;48.622;9.230;2023-02-28T05:47:54;98501.09;;;-0.69;76.73
8894;BME280;4483;48.622;9.230;2023-02-28T05:50:22;98492.72;;;-0.68;76.79
8894;BME280;4483;48.622;9.230;2023-02-28T05:52:49;98503.72;;;-0.66;77.03
8894;BME280;4483;48.622;9.230;2023-02-28T05:55:16;98491.88;;;-0.66;77.33
8894;BME280;4483;48.622;9.230;2023-02-28T05:57:42;98491.06;;;-0.65;76.81
8894;BME280;4483;48.622;9.230;2023-02-28T06:00:10;98491.88;;;-0.66;77.08
8894;BME280;4483;48.622;9.230;2023-02-28T06:02:38;98493.63;;;-0.63;76.82
8894;BME280;4483;48.622;9.230;2023-02-28T06:05:09;98496.13;;;-0.66;77.55
8894;BME280;4483;48.622;9.230;2023-02-28T06:07:40;98504.50;;;-0.67;76.87
8894;BME280;4483;48.622;9.230;2023-02-28T06:10:07;98498.63;;;-0.68;76.89
8894;BME280;4483;48.622;9.230;2023-02-28T06:12:34;98503.69;;;-0.68;76.98
8894;BME280;4483;48.622;9.230;2023-02-28T06:15:01;98500.34;;;-0.64;76.89
8894;BME280;4483;48.622;9.230;2023-02-28T06:17:27;98499.56;;;-0.58;76.81
8894;BME280;4483;48.622;9.230;2023-02-28T06:19:54;98507.97;;;-0.62;77.10
8894;BME280;4483;48.622;9.230;2023-02-28T06:22:21;98512.19;;;-0.61;77.14
8894;BME280;4483;48.622;9.230;2023-02-28T06:24:49;98511.44;;;-0.56;76.44
8894;BME280;4483;48.622;9.230;2023-02-28T06:27:16;98520.69;;;-0.58;76.62
8894;BME280;4483;48.622;9.230;2023-02-28T06:29:42;98517.28;;;-0.58;76.74
8894;BME280;4483;48.622;9.230;2023-02-28T06:32:09;98516.38;;;-0.63;76.03
8894;BME280;4483;48.622;9.230;2023-02-28T06:34:36;98520.66;;;-0.59;76.21
8894;BME280;4483;48.622;9.230;2023-02-28T06:37:02;98525.72;;;-0.59;76.45
8894;BME280;4483;48.622;9.230;2023-02-28T06:39:29;98525.75;;;-0.58;75.66
8894;BME280;4483;48.622;9.230;2023-02-28T06:41:57;98533.41;;;-0.53;76.75
8894;BME280;4483;48.622;9.230;2023-02-28T06:44:24;98527.50;;;-0.52;76.10
8894;BME280;4483;48.622;9.230;2023-02-28T06:46:50;98531.78;;;-0.48;75.89
8894;BME280;4483;48.622;9.230;2023-02-28T06:49:17;98529.25;;;-0.48;75.50
8894;BME280;4483;48.622;9.230;2023-02-28T06:51:45;98528.41;;;-0.47;75.73
8894;BME280;4483;48.622;9.230;2023-02-28T06:54:12;98520.84;;;-0.46;76.08
8894;BME280;4483;48.622;9.230;2023-02-28T06:56:39;98528.47;;;-0.44;75.73
8894;BME280;4483;48.622;9.230;2023-02-28T06:59:07;98535.22;;;-0.43;75.34
8894;BME280;4483;48.622;9.230;2023-02-28T07:01:34;98537.00;;;-0.36;75.46
8894;BME280;4483;48.622;9.230;2023-02-28T07:04:01;98539.56;;;-0.35;75.43
8894;BME280;4483;48.622;9.230;2023-02-28T07:06:28;98533.66;;;-0.35;74.71
8894;BME280;4483;48.622;9.230;2023-02-28T07:08:55;98547.97;;;-0.37;75.28
8894;BME280;4483;48.622;9.230;2023-02-28T07:11:23;98542.06;;;-0.36;75.15
8894;BME280;4483;48.622;9.230;2023-02-28T07:13:51;98550.50;;;-0.39;75.26
8894;BME280;4483;48.622;9.230;2023-02-28T07:16:19;98549.66;;;-0.36;75.38
8894;BME280;4483;48.622;9.230;2023-02-28T07:18:46;98550.50;;;-0.37;75.11
8894;BME280;4483;48.622;9.230;2023-02-28T07:21:13;98550.50;;;-0.37;74.77
8894;BME280;4483;48.622;9.230;2023-02-28T07:23:40;98548.84;;;-0.37;75.32
8894;BME280;4483;48.622;9.230;2023-02-28T07:26:07;98554.72;;;-0.36;74.95
8894;BME280;4483;48.622;9.230;2023-02-28T07:28:38;98542.94;;;-0.36;74.56
8894;BME280;4483;48.622;9.230;2023-02-28T07:31:05;98558.13;;;-0.34;74.84
8894;BME280;4483;48.622;9.230;2023-02-28T07:33:34;98554.78;;;-0.33;74.63
8894;BME280;4483;48.622;9.230;2023-02-28T07:36:01;98555.66;;;-0.31;74.64
8894;BME280;4483;48.622;9.230;2023-02-28T07:38:28;98551.44;;;-0.31;74.49
8894;BME280;4483;48.622;9.230;2023-02-28T07:40:55;98547.22;;;-0.30;74.70
8894;BME280;4483;48.622;9.230;2023-02-28T07:43:21;98554.91;;;-0.23;75.27
8894;BME280;4483;48.622;9.230;2023-02-28T07:45:48;98549.00;;;-0.22;73.79
8894;BME280;4483;48.622;9.230;2023-02-28T07:48:14;98549.09;;;-0.17;74.50
8894;BME280;4483;48.622;9.230;2023-02-28T07:50:42;98552.50;;;-0.14;74.27
8894;BME280;4483;48.622;9.230;2023-02-28T07:53:09;98548.28;;;-0.13;74.11
8894;BME280;4483;48.622;9.230;2023-02-28T07:55:35;98551.66;;;-0.14;74.52
8894;BME280;4483;48.622;9.230;2023-02-28T07:58:02;98549.97;;;-0.15;73.77
8894;BME280;4483;48.622;9.230;2023-02-28T08:00:29;98550.84;;;-0.12;74.12
8894;BME280;4483;48.622;9.230;2023-02-28T08:02:57;98555.91;;;-0.10;73.52
8894;BME280;4483;48.622;9.230;2023-02-28T08:05:24;98555.91;;;-0.13;73.63
8894;BME280;4483;48.622;9.230;2023-02-28T08:07:52;98555.91;;;-0.12;73.51
8894;BME280;4483;48.622;9.230;2023-02-28T08:10:19;98566.84;;;-0.13;73.47
8894;BME280;4483;48.622;9.230;2023-02-28T08:12:46;98570.31;;;-0.08;73.47
8894;BME280;4483;48.622;9.230;2023-02-28T08:15:13;98578.03;;;0.00;73.72
8894;BME280;4483;48.622;9.230;2023-02-28T08:17:39;98573.78;;;0.02;73.12
8894;BME280;4483;48.622;9.230;2023-02-28T08:20:07;98582.31;;;0.07;72.15
8894;BME280;4483;48.622;9.230;2023-02-28T08:22:35;98577.22;;;0.06;72.82
8894;BME280;4483;48.622;9.230;2023-02-28T08:25:04;98577.28;;;0.10;72.69
8894;BME280;4483;48.622;9.230;2023-02-28T08:27:32;98573.88;;;0.07;72.29
8894;BME280;4483;48.622;9.230;2023-02-28T08:29:59;98582.38;;;0.13;71.90
8894;BME280;4483;48.622;9.230;2023-02-28T08:32:26;98573.19;;;0.21;72.78
8894;BME280;4483;48.622;9.230;2023-02-28T08:34:52;98566.41;;;0.19;71.18
8894;BME280;4483;48.622;9.230;2023-02-28T08:37:19;98566.44;;;0.20;71.05
8894;BME280;4483;48.622;9.230;2023-02-28T08:39:46;98573.22;;;0.24;71.53
8894;BME280;4483;48.622;9.230;2023-02-28T08:42:14;98567.38;;;0.31;71.03
8894;BME280;4483;48.622;9.230;2023-02-28T08:44:40;98579.22;;;0.29;70.05
8894;BME280;4483;48.622;9.230;2023-02-28T08:47:07;98572.44;;;0.30;69.94
8894;BME280;4483;48.622;9.230;2023-02-28T08:49:34;98578.38;;;0.33;70.86
8894;BME280;4483;48.622;9.230;2023-02-28T08:52:00;98582.66;;;0.34;70.31
8894;BME280;4483;48.622;9.230;2023-02-28T08:54:27;98586.06;;;0.38;69.35
8894;BME280;4483;48.622;9.230;2023-02-28T08:56:56;98588.72;;;0.50;70.52
8894;BME280;4483;48.622;9.230;2023-02-28T08:59:24;98581.16;;;0.54;70.18
8894;BME280;4483;48.622;9.230;2023-02-28T09:01:51;98579.50;;;0.58;69.32
8894;BME280;4483;48.622;9.230;2023-02-28T09:04:18;98582.84;;;0.55;68.99
8894;BME280;4483;48.622;9.230;2023-02-28T09:06:44;98583.69;;;0.53;68.91
8894;BME280;4483;48.622;9.230;2023-02-28T09:09:11;98587.97;;;0.58;68.88
8894;BME280;4483;48.622;9.230;2023-02-28T09:11:37;98593.13;;;0.66;68.60
8894;BME280;4483;48.622;9.230;2023-02-28T09:14:04;98589.81;;;0.71;69.29
8894;BME280;4483;48.622;9.230;2023-02-28T09:16:33;98588.16;;;0.75;68.32
8894;BME280;4483;48.622;9.230;2023-02-28T09:19:00;98591.50;;;0.75;67.37
8894;BME280;4483;48.622;9.230;2023-02-28T09:21:27;98592.38;;;0.77;68.20
8894;BME280;4483;48.622;9.230;2023-02-28T09:23:54;98598.34;;;0.81;68.01
8894;BME280;4483;48.622;9.230;2023-02-28T09:26:23;98601.72;;;0.78;67.56
8894;BME280;4483;48.622;9.230;2023-02-28T09:28:50;98599.19;;;0.83;67.58
8894;BME280;4483;48.622;9.230;2023-02-28T09:31:18;98604.38;;;0.92;68.38
8894;BME280;4483;48.622;9.230;2023-02-28T09:33:48;98608.63;;;0.96;66.44
8894;BME280;4483;48.622;9.230;2023-02-28T09:36:15;98609.50;;;0.99;67.30
8894;BME280;4483;48.622;9.230;2023-02-28T09:38:42;98607.91;;;1.08;67.34
8894;BME280;4483;48.622;9.230;2023-02-28T09:41:14;98608.78;;;1.13;66.69
8894;BME280;4483;48.622;9.230;2023-02-28T09:43:45;98606.31;;;1.22;66.88
8894;BME280;4483;48.622;9.230;2023-02-28T09:46:26;98613.13;;;1.27;65.72
8894;BME280;4483;48.622;9.230;2023-02-28T09:48:56;98609.78;;;1.28;66.27
8894;BME280;4483;48.622;9.230;2023-02-28T09:51:34;98610.59;;;1.26;66.98
8894;BME280;4483;48.622;9.230;2023-02-28T09:54:04;98602.97;;;1.23;65.21
8894;BME280;4483;48.622;9.230;2023-02-28T09:56:36;98617.28;;;1.19;65.89
8894;BME280;4483;48.622;9.230;2023-02-28T09:59:09;98609.66;;;1.15;65.14
8894;BME280;4483;48.622;9.230;2023-02-28T10:01:42;98616.44;;;1.17;65.02
8894;BME280;4483;48.622;9.230;2023-02-28T10:04:16;98617.28;;;1.16;65.89
8894;BME280;4483;48.622;9.230;2023-02-28T10:06:50;98619.88;;;1.21;65.83
8894;BME280;4483;48.622;9.230;2023-02-28T10:09:20;98630.03;;;1.25;65.39
8894;BME280;4483;48.622;9.230;2023-02-28T10:11:51;98627.50;;;1.25;64.75
8894;BME280;4483;48.622;9.230;2023-02-28T10:14:19;98635.16;;;1.30;64.53
8894;BME280;4483;48.622;9.230;2023-02-28T10:16:49;98638.59;;;1.35;65.08
8894;BME280;4483;48.622;9.230;2023-02-28T10:19:22;98638.66;;;1.41;64.88
8894;BME280;4483;48.622;9.230;2023-02-28T10:21:55;98631.03;;;1.42;64.27
8894;BME280;4483;48.622;9.230;2023-02-28T10:24:28;98631.13;;;1.53;64.66
8894;BME280;4483;48.622;9.230;2023-02-28T10:27:00;98629.50;;;1.62;64.87
8894;BME280;4483;48.622;9.230;2023-02-28T10:29:31;98640.53;;;1.66;64.26
8894;BME280;4483;48.622;9.230;2023-02-28T10:32:01;98638.03;;;1.72;63.90
8894;BME280;4483;48.622;9.230;2023-02-28T10:34:30;98629.63;;;1.82;63.45
8894;BME280;4483;48.622;9.230;2023-02-28T10:36:58;98624.59;;;1.89;63.51
8894;BME280;4483;48.622;9.230;2023-02-28T10:39:40;98612.84;;;2.10;63.33
8894;BME280;4483;48.622;9.230;2023-02-28T10:42:20;98630.69;;;2.22;63.08
8894;BME280;4483;48.622;9.230;2023-02-28T10:44:47;98626.53;;;2.37;61.37
8894;BME280;4483;48.622;9.230;2023-02-28T10:47:15;98620.66;;;2.53;61.44
8894;BME280;4483;48.622;9.230;2023-02-28T10:49:49;98615.66;;;2.74;61.76
8894;BME280;4483;48.622;9.230;2023-02-28T10:52:33;98616.53;;;3.00;61.16
8894;BME280;4483;48.622;9.230;2023-02-28T10:55:15;98626.72;;;3.17;60.22
8894;BME280;4483;48.622;9.230;2023-02-28T10:57:42;98619.97;;;3.13;59.32
8894;BME280;4483;48.622;9.230;2023-02-28T11:00:15;98619.94;;;3.15;59.06
8894;BME280;4483;48.622;9.230;2023-02-28T11:02:42;98620.78;;;3.56;58.26
8894;BME280;4483;48.622;9.230;2023-02-28T11:05:26;98614.00;;;3.73;57.63
8894;BME280;4483;48.622;9.230;2023-02-28T11:07:54;98613.97;;;3.97;58.08
8894;BME280;4483;48.622;9.230;2023-02-28T11:10:31;98614.75;;;4.16;56.55
8894;BME280;4483;48.622;9.230;2023-02-28T11:13:00;98609.47;;;4.55;56.92
8894;BME280;4483;48.622;9.230;2023-02-28T11:15:29;98611.97;;;4.65;56.38
8894;BME280;4483;48.622;9.230;2023-02-28T11:17:59;98617.88;;;4.75;54.89
8894;BME280;4483;48.622;9.230;2023-02-28T11:20:30;98615.88;;;5.22;54.43
8894;BME280;4483;48.622;9.230;2023-02-28T11:22:58;98616.78;;;5.17;54.71
8894;BME280;4483;48.622;9.230;2023-02-28T11:25:29;98612.38;;;5.40;53.83
8894;BME280;4483;48.622;9.230;2023-02-28T11:28:00;98605.94;;;5.95;53.04
8894;BME280;4483;48.622;9.230;2023-02-28T11:30:35;98609.63;;;6.44;51.48
8894;BME280;4483;48.622;9.230;2023-02-28T11:33:21;98623.53;;;6.22;50.47
8894;BME280;4483;48.622;9.230;2023-02-28T11:35:52;98609.22;;;6.03;49.59
8894;BME280;4483;48.622;9.230;2023-02-28T11:38:19;98605.00;;;5.99;50.12
8894;BME280;4483;48.622;9.230;2023-02-28T11:40:51;98600.03;;;5.81;50.69
8894;BME280;4483;48.622;9.230;2023-02-28T11:43:34;98595.97;;;5.63;50.88
8894;BME280;4483;48.622;9.230;2023-02-28T11:46:18;98595.09;;;5.64;51.75
8894;BME280;4483;48.622;9.230;2023-02-28T11:48:54;98599.38;;;5.64;50.84
8894;BME280;4483;48.622;9.230;2023-02-28T11:51:30;98589.00;;;5.77;50.96
8894;BME280;4483;48.622;9.230;2023-02-28T11:54:11;98587.16;;;5.96;51.32
8894;BME280;4483;48.622;9.230;2023-02-28T11:56:47;98585.91;;;6.29;50.13
8894;BME280;4483;48.622;9.230;2023-02-28T11:59:29;98584.75;;;6.54;49.23
8894;BME280;4483;48.622;9.230;2023-02-28T12:02:15;98578.25;;;6.94;48.29
8894;BME280;4483;48.622;9.230;2023-02-28T12:04:53;98580.28;;;7.26;47.80
8894;BME280;4483;48.622;9.230;2023-02-28T12:07:30;98565.91;;;7.69;47.11
8894;BME280;4483;48.622;9.230;2023-02-28T12:10:04;98576.72;;;7.84;46.94
8894;BME280;4483;48.622;9.230;2023-02-28T12:12:44;98572.16;;;8.00;44.55
8894;BME280;4483;48.622;9.230;2023-02-28T12:15:24;98563.59;;;8.45;45.04
8894;BME280;4483;48.622;9.230;2023-02-28T12:18:14;98558.22;;;8.94;44.60
8894;BME280;4483;48.622;9.230;2023-02-28T12:20:48;98545.28;;;8.98;42.94
8894;BME280;4483;48.622;9.230;2023-02-28T12:23:32;98550.72;;;8.85;44.03
8894;BME280;4483;48.622;9.230;2023-02-28T12:26:08;98564.22;;;8.94;43.70
8894;BME280;4483;48.622;9.230;2023-02-28T12:28:43;98549.91;;;9.20;43.52
8894;BME280;4483;48.622;9.230;2023-02-28T12:31:18;98550.41;;;9.67;43.44
8894;BME280;4483;48.622;9.230;2023-02-28T12:33:50;98547.00;;;9.99;41.93
8894;BME280;4483;48.622;9.230;2023-02-28T12:36:19;98554.25;;;10.17;42.86
8894;BME280;4483;48.622;9.230;2023-02-28T12:38:53;98560.38;;;10.13;42.57
8894;BME280;4483;48.622;9.230;2023-02-28T12:41:27;98553.75;;;9.71;41.63
8894;BME280;4483;48.622;9.230;2023-02-28T12:44:01;98554.03;;;9.60;43.04
8894;BME280;4483;48.622;9.230;2023-02-28T12:46:32;98541.16;;;9.94;42.38
8894;BME280;4483;48.622;9.230;2023-02-28T12:49:05;98534.97;;;9.67;40.82
8894;BME280;4483;48.622;9.230;2023-02-28T12:51:34;98536.41;;;9.47;42.19
8894;BME280;4483;48.622;9.230;2023-02-28T12:54:12;98541.69;;;9.73;42.53
8894;BME280;4483;48.622;9.230;2023-02-28T12:56:46;98534.13;;;9.68;41.51
8894;BME280;4483;48.622;9.230;2023-02-28T12:59:22;98537.84;;;9.57;41.79
8894;BME280;4483;48.622;9.230;2023-02-28T13:05:18;98542.25;;;9.52;41.49
8894;BME280;4483;48.622;9.230;2023-02-28T13:08:08;98521.34;;;9.64;42.48
8894;BME280;4483;48.622;9.230;2023-02-28T13:10:40;98516.50;;;9.53;42.75
8894;BME280;4483;48.622;9.230;2023-02-28T13:13:14;98521.72;;;9.50;41.64
8894;BME280;4483;48.622;9.230;2023-02-28T13:16:00;98522.25;;;9.63;42.77
8894;BME280;4483;48.622;9.230;2023-02-28T13:18:30;98515.06;;;9.75;42.08
8894;BME280;4483;48.622;9.230;2023-02-28T13:20:58;98515.66;;;9.85;42.06
8894;BME280;4483;48.622;9.230;2023-02-28T13:23:56;98515.75;;;9.80;41.77
8894;BME280;4483;48.622;9.230;2023-02-28T13:29:31;98514.28;;;10.02;41.14
8894;BME280;4483;48.622;9.230;2023-02-28T13:32:18;98508.13;;;10.08;41.61
8894;BME280;4483;48.622;9.230;2023-02-28T13:35:14;98505.66;;;10.36;42.12
8894;BME280;4483;48.622;9.230;2023-02-28T13:37:44;98509.09;;;10.35;41.36
8894;BME280;4483;48.622;9.230;2023-02-28T13:40:32;98519.66;;;10.26;41.01
8894;BME280;4483;48.622;9.230;2023-02-28T13:43:07;98509.00;;;10.08;41.64
8894;BME280;4483;48.622;9.230;2023-02-28T13:45:34;98508.84;;;9.82;41.52
8894;BME280;4483;48.622;9.230;2023-02-28T13:48:05;98511.13;;;9.93;42.08
8894;BME280;4483;48.622;9.230;2023-02-28T13:50:43;98508.84;;;9.82;41.88
8894;BME280;4483;48.622;9.230;2023-02-28T13:53:28;98508.34;;;10.00;41.84
8894;BME280;4483;48.622;9.230;2023-02-28T13:56:01;98510.16;;;9.97;41.00